createdAt,value
2022-09-23T00:02:19.276Z,99.90
2022-09-23T00:04:46.824Z,99.90
2022-09-23T00:07:13.423Z,99.90
2022-09-23T00:09:40.018Z,99.90
2022-09-23T00:12:09.016Z,99.90
2022-09-23T00:14:37.082Z,99.90
2022-09-23T00:17:03.816Z,99.90
2022-09-23T00:19:30.508Z,99.90
2022-09-23T00:21:57.269Z,99.90
2022-09-23T00:24:23.917Z,99.90
2022-09-23T00:26:51.596Z,99.90
2022-09-23T00:29:18.874Z,99.90
2022-09-23T00:31:45.566Z,99.90
2022-09-23T00:34:12.202Z,99.90
2022-09-23T00:36:38.860Z,99.90
2022-09-23T00:39:05.689Z,99.90
2022-09-23T00:41:32.546Z,99.90
2022-09-23T00:44:00.170Z,99.90
2022-09-23T00:46:29.953Z,99.90
2022-09-23T00:48:58.306Z,99.90
2022-09-23T00:51:28.090Z,99.90
2022-09-23T00:53:54.987Z,99.90
2022-09-23T00:56:22.985Z,99.90
2022-09-23T00:58:50.317Z,99.90
2022-09-23T01:01:17.001Z,99.90
2022-09-23T01:03:44.952Z,99.90
2022-09-23T01:06:11.728Z,99.90
2022-09-23T01:08:38.906Z,99.90
2022-09-23T01:11:22.244Z,99.90
2022-09-23T01:14:01.216Z,99.90
2022-09-23T01:16:32.503Z,99.90
2022-09-23T01:19:02.109Z,99.90
2022-09-23T01:21:31.586Z,99.90
2022-09-23T01:24:07.859Z,99.90
2022-09-23T01:26:53.146Z,99.90
2022-09-23T01:29:23.794Z,99.90
2022-09-23T01:31:50.407Z,99.90
2022-09-23T01:34:35.448Z,99.90
2022-09-23T01:37:05.129Z,99.90
2022-09-23T01:39:37.025Z,99.90
2022-09-23T01:42:13.485Z,99.90
2022-09-23T01:44:48.150Z,99.90
2022-09-23T01:47:17.307Z,99.90
2022-09-23T01:49:49.331Z,99.90
2022-09-23T01:52:19.472Z,99.90
2022-09-23T01:54:50.682Z,99.90
2022-09-23T01:57:23.489Z,99.90
2022-09-23T01:59:55.847Z,99.90
2022-09-23T02:02:22.469Z,99.90
2022-09-23T02:04:54.141Z,99.90
2022-09-23T02:07:33.601Z,99.90
2022-09-23T02:10:06.852Z,99.90
2022-09-23T02:12:35.727Z,99.90
2022-09-23T02:15:08.591Z,99.90
2022-09-23T02:17:42.525Z,99.90
2022-09-23T02:20:10.554Z,99.90
2022-09-23T02:22:37.109Z,99.90
2022-09-23T02:25:03.913Z,99.90
2022-09-23T02:27:33.155Z,99.90
2022-09-23T02:30:04.635Z,99.90
2022-09-23T02:32:42.847Z,99.90
2022-09-23T02:35:10.133Z,99.90
2022-09-23T02:37:37.171Z,99.90
2022-09-23T02:40:13.001Z,99.90
2022-09-23T02:43:02.794Z,99.90
2022-09-23T02:45:29.530Z,99.90
2022-09-23T02:48:02.456Z,99.90
2022-09-23T02:50:30.975Z,99.90
2022-09-23T02:52:58.255Z,99.90
2022-09-23T02:55:26.636Z,99.90
2022-09-23T02:57:53.443Z,99.90
2022-09-23T03:00:20.499Z,99.90
2022-09-23T03:03:11.226Z,99.90
2022-09-23T03:05:43.857Z,99.90
2022-09-23T03:08:19.223Z,99.90
2022-09-23T03:11:05.716Z,99.90
2022-09-23T03:13:54.085Z,99.90
2022-09-23T03:16:29.599Z,99.90
2022-09-23T03:18:59.151Z,99.90
2022-09-23T03:21:48.804Z,99.90
2022-09-23T03:24:15.637Z,99.90
2022-09-23T03:26:45.061Z,99.90
2022-09-23T03:29:11.876Z,99.90
2022-09-23T03:31:42.598Z,99.90
2022-09-23T03:34:12.800Z,99.90
2022-09-23T03:36:56.611Z,99.90
2022-09-23T03:39:40.157Z,99.90
2022-09-23T03:42:16.953Z,99.90
2022-09-23T03:44:45.333Z,99.90
2022-09-23T03:47:13.793Z,99.90
2022-09-23T03:49:42.252Z,99.90
2022-09-23T03:52:08.833Z,99.90
2022-09-23T03:54:35.474Z,99.90
2022-09-23T03:57:03.015Z,99.90
2022-09-23T03:59:33.165Z,99.90
2022-09-23T04:02:00.210Z,99.90
2022-09-23T04:04:27.666Z,99.90
2022-09-23T04:06:55.182Z,99.90
2022-09-23T04:09:22.580Z,99.90
2022-09-23T04:11:52.778Z,99.90
2022-09-23T04:14:19.954Z,99.90
2022-09-23T04:16:47.499Z,99.90
2022-09-23T04:19:14.679Z,99.90
2022-09-23T04:21:42.104Z,99.90
2022-09-23T04:24:09.465Z,99.90
2022-09-23T04:26:36.963Z,99.90
2022-09-23T04:29:04.950Z,99.90
2022-09-23T04:31:32.380Z,99.90
2022-09-23T04:33:59.184Z,99.90
2022-09-23T04:36:25.959Z,99.90
2022-09-23T04:38:52.687Z,99.90
2022-09-23T04:41:19.661Z,99.90
2022-09-23T04:43:46.441Z,99.90
2022-09-23T04:46:14.451Z,99.90
2022-09-23T04:48:41.734Z,99.90
2022-09-23T04:51:09.542Z,99.90
2022-09-23T04:53:37.049Z,99.90
2022-09-23T04:56:05.202Z,99.90
2022-09-23T04:58:32.583Z,99.90
2022-09-23T05:01:03.074Z,99.90
2022-09-23T05:03:35.697Z,99.90
2022-09-23T05:06:02.315Z,99.90
2022-09-23T05:08:29.592Z,99.90
2022-09-23T05:10:56.895Z,99.90
2022-09-23T05:13:23.604Z,99.90
2022-09-23T05:15:50.240Z,99.90
2022-09-23T05:18:20.679Z,99.90
2022-09-23T05:20:52.606Z,99.90
2022-09-23T05:23:19.672Z,99.90
2022-09-23T05:25:46.253Z,99.90
2022-09-23T05:28:13.001Z,99.90
2022-09-23T05:30:39.624Z,99.90
2022-09-23T05:33:06.198Z,99.90
2022-09-23T05:35:32.848Z,99.90
2022-09-23T05:37:59.673Z,99.90
2022-09-23T05:40:26.374Z,99.90
2022-09-23T05:42:53.093Z,99.90
2022-09-23T05:45:19.800Z,99.90
2022-09-23T05:47:46.398Z,99.90
2022-09-23T05:50:13.110Z,99.90
2022-09-23T05:52:39.748Z,99.90
2022-09-23T05:55:06.628Z,99.90
2022-09-23T05:57:33.334Z,99.90
2022-09-23T06:00:00.043Z,99.90
2022-09-23T06:02:26.780Z,99.90
2022-09-23T06:04:53.477Z,98.60
2022-09-23T06:07:20.197Z,95.10
2022-09-23T06:09:46.829Z,92.40
2022-09-23T06:12:14.185Z,90.80
2022-09-23T06:14:40.811Z,87.20
2022-09-23T06:17:07.446Z,84.90
2022-09-23T06:19:34.062Z,82.30
2022-09-23T06:22:00.833Z,81.10
2022-09-23T06:24:31.359Z,79.50
2022-09-23T06:26:58.471Z,78.60
2022-09-23T06:29:25.140Z,76.70
2022-09-23T06:31:51.906Z,75.50
2022-09-23T06:34:19.221Z,74.90
2022-09-23T06:36:46.812Z,73.90
2022-09-23T06:39:14.421Z,71.60
2022-09-23T06:41:41.179Z,70.80
2022-09-23T06:44:07.882Z,69.90
2022-09-23T06:46:36.777Z,69.60
2022-09-23T06:49:03.628Z,69.60
2022-09-23T06:51:30.288Z,69.90
2022-09-23T06:53:56.933Z,70.20
2022-09-23T06:56:23.808Z,70.40
2022-09-23T06:58:51.693Z,68.40
2022-09-23T07:01:19.846Z,68.50
2022-09-23T07:03:48.243Z,68.70
2022-09-23T07:06:15.316Z,68.60
2022-09-23T07:08:43.184Z,66.40
2022-09-23T07:11:13.415Z,63.70
2022-09-23T07:13:41.199Z,63.50
2022-09-23T07:16:08.531Z,64.00
2022-09-23T07:18:37.349Z,63.90
2022-09-23T07:21:07.132Z,62.70
2022-09-23T07:23:33.949Z,63.70
2022-09-23T07:26:00.935Z,63.70
2022-09-23T07:28:29.087Z,65.90
2022-09-23T07:31:00.447Z,68.70
2022-09-23T07:33:32.996Z,69.10
2022-09-23T07:36:04.304Z,67.80
2022-09-23T07:38:31.483Z,65.50
2022-09-23T07:41:05.409Z,63.80
2022-09-23T07:43:32.805Z,63.20
2022-09-23T07:46:00.414Z,62.40
2022-09-23T07:48:30.692Z,61.30
2022-09-23T07:51:00.270Z,61.80
2022-09-23T07:53:27.337Z,61.50
2022-09-23T07:55:55.142Z,61.90
2022-09-23T07:58:22.303Z,61.40
2022-09-23T08:00:51.389Z,60.90
2022-09-23T08:03:18.105Z,59.40
2022-09-23T08:05:45.912Z,60.50
2022-09-23T08:08:14.122Z,60.30
2022-09-23T08:10:40.875Z,61.10
2022-09-23T08:13:07.543Z,60.00
2022-09-23T08:15:34.369Z,59.50
2022-09-23T08:18:01.812Z,60.30
2022-09-23T08:20:47.813Z,59.50
2022-09-23T08:23:16.166Z,59.10
2022-09-23T08:25:46.848Z,60.00
2022-09-23T08:28:18.632Z,60.90
2022-09-23T08:30:48.077Z,60.90
2022-09-23T08:33:17.484Z,61.70
2022-09-23T08:35:46.453Z,63.20
2022-09-23T08:38:13.091Z,64.00
2022-09-23T08:40:42.257Z,65.50
2022-09-23T08:43:15.739Z,67.10
2022-09-23T08:45:43.464Z,66.60
2022-09-23T08:48:15.734Z,67.70
2022-09-23T08:50:44.245Z,68.90
2022-09-23T08:53:19.829Z,71.40
2022-09-23T08:55:47.825Z,71.20
2022-09-23T08:58:37.253Z,72.80
2022-09-23T09:01:16.405Z,72.90
2022-09-23T09:03:46.378Z,72.40
2022-09-23T09:06:17.219Z,72.90
2022-09-23T09:08:44.508Z,72.80
2022-09-23T09:11:12.239Z,70.80
2022-09-23T09:13:48.885Z,69.20
2022-09-23T09:16:42.151Z,69.10
2022-09-23T09:19:31.209Z,69.60
2022-09-23T09:21:57.912Z,67.90
2022-09-23T09:24:29.202Z,68.40
2022-09-23T09:26:55.884Z,68.80
2022-09-23T09:29:36.228Z,66.50
2022-09-23T09:32:13.976Z,67.00
2022-09-23T09:34:47.264Z,68.80
2022-09-23T09:37:33.610Z,67.90
2022-09-23T09:40:00.308Z,68.70
2022-09-23T09:42:39.613Z,69.00
2022-09-23T09:45:30.049Z,67.70
2022-09-23T09:48:05.840Z,65.80
2022-09-23T09:50:49.114Z,66.20
2022-09-23T09:53:26.501Z,64.20
2022-09-23T09:56:04.371Z,64.20
2022-09-23T09:58:43.845Z,64.80
2022-09-23T10:01:20.674Z,64.00
2022-09-23T10:03:48.709Z,67.30
2022-09-23T10:06:17.922Z,66.10
2022-09-23T10:08:49.304Z,64.30
2022-09-23T10:11:17.415Z,64.90
2022-09-23T10:14:02.869Z,64.20
2022-09-23T10:16:31.675Z,64.10
2022-09-23T10:19:11.275Z,63.70
2022-09-23T10:21:38.297Z,66.40
2022-09-23T10:24:06.274Z,64.90
2022-09-23T10:26:34.469Z,65.10
2022-09-23T10:29:02.852Z,63.40
2022-09-23T10:31:32.064Z,63.20
2022-09-23T10:34:02.511Z,63.20
2022-09-23T10:36:30.577Z,65.00
2022-09-23T10:39:18.631Z,64.30
2022-09-23T10:42:28.682Z,64.30
2022-09-23T10:45:14.185Z,61.50
2022-09-23T10:47:45.114Z,61.20
2022-09-23T10:50:17.240Z,60.90
2022-09-23T10:52:43.794Z,60.60
2022-09-23T10:55:22.755Z,61.40
2022-09-23T10:57:49.393Z,59.70
2022-09-23T11:00:16.086Z,59.10
2022-09-23T11:03:01.120Z,60.40
2022-09-23T11:05:55.326Z,60.30
2022-09-23T11:08:27.471Z,62.30
2022-09-23T11:11:12.875Z,62.70
2022-09-23T11:13:54.953Z,62.10
2022-09-23T11:16:40.373Z,60.80
2022-09-23T11:19:07.094Z,63.40
2022-09-23T11:21:45.546Z,64.10
2022-09-23T11:24:31.230Z,63.30
2022-09-23T11:27:03.833Z,64.60
2022-09-23T11:29:33.833Z,67.30
2022-09-23T11:32:07.011Z,67.20
2022-09-23T11:34:42.853Z,66.70
2022-09-23T11:37:13.984Z,67.80
2022-09-23T11:39:54.943Z,66.50
2022-09-23T11:42:31.029Z,66.70
2022-09-23T11:45:08.650Z,67.70
2022-09-23T11:47:39.745Z,68.80
2022-09-23T11:50:17.804Z,69.60
2022-09-23T11:52:47.418Z,70.40
2022-09-23T11:55:27.112Z,69.50
2022-09-23T11:57:53.821Z,68.40
2022-09-23T12:00:24.244Z,70.00
2022-09-23T12:03:03.599Z,70.80
2022-09-23T12:05:35.133Z,69.70
2022-09-23T12:08:06.945Z,69.70
2022-09-23T12:10:41.619Z,72.20
2022-09-23T12:13:24.438Z,69.10
2022-09-23T12:15:58.290Z,69.00
2022-09-23T12:18:47.966Z,71.50
2022-09-23T12:21:46.227Z,70.30
2022-09-23T12:24:26.889Z,71.60
2022-09-23T12:26:57.168Z,68.40
2022-09-23T12:29:25.509Z,70.20
2022-09-23T12:31:52.642Z,71.30
2022-09-23T12:34:28.782Z,70.90
2022-09-23T12:37:02.039Z,70.00
2022-09-23T12:39:32.861Z,69.90
2022-09-23T12:42:10.845Z,69.40
2022-09-23T12:44:40.708Z,67.20
2022-09-23T12:47:25.264Z,69.40
2022-09-23T12:49:53.247Z,68.10
2022-09-23T12:52:19.864Z,67.30
2022-09-23T12:54:47.570Z,68.10
2022-09-23T12:57:33.049Z,70.50
2022-09-23T13:00:13.076Z,71.20
2022-09-23T13:03:10.534Z,70.30
2022-09-23T13:06:19.260Z,70.40
2022-09-23T13:08:47.327Z,72.00
2022-09-23T13:11:32.775Z,70.40
2022-09-23T13:14:01.929Z,70.20
2022-09-23T13:16:34.069Z,70.90
2022-09-23T13:19:01.682Z,73.30
2022-09-23T13:21:43.704Z,72.50
2022-09-23T13:24:13.108Z,71.40
2022-09-23T13:26:45.652Z,70.90
2022-09-23T13:29:16.814Z,69.60
2022-09-23T13:31:44.644Z,72.00
2022-09-23T13:34:13.477Z,73.30
2022-09-23T13:36:44.372Z,71.70
2022-09-23T13:39:15.302Z,71.60
2022-09-23T13:41:43.125Z,71.30
2022-09-23T13:44:14.993Z,71.00
2022-09-23T13:46:45.622Z,69.50
2022-09-23T13:49:24.649Z,70.90
2022-09-23T13:51:55.168Z,69.80
2022-09-23T13:54:44.563Z,70.80
2022-09-23T13:57:26.492Z,70.00
2022-09-23T13:59:53.624Z,71.20
2022-09-23T14:02:20.374Z,70.50
2022-09-23T14:04:47.179Z,71.70
2022-09-23T14:07:14.872Z,72.00
2022-09-23T14:09:42.974Z,72.80
2022-09-23T14:12:10.411Z,72.00
2022-09-23T14:14:39.400Z,72.40
2022-09-23T14:17:07.893Z,72.50
2022-09-23T14:19:35.886Z,71.90
2022-09-23T14:22:03.184Z,72.70
2022-09-23T14:24:29.950Z,73.50
2022-09-23T14:26:58.883Z,73.20
2022-09-23T14:29:27.035Z,73.20
2022-09-23T14:31:58.575Z,73.10
2022-09-23T14:34:43.983Z,73.10
2022-09-23T14:37:39.950Z,72.50
2022-09-23T14:40:12.309Z,73.80
2022-09-23T14:42:41.177Z,73.40
2022-09-23T14:45:10.315Z,73.90
2022-09-23T14:47:37.094Z,73.30
2022-09-23T14:50:22.515Z,72.30
2022-09-23T14:52:50.061Z,72.90
2022-09-23T14:55:17.591Z,73.80
2022-09-23T14:57:45.363Z,73.20
2022-09-23T15:00:18.756Z,72.50
2022-09-23T15:02:57.118Z,72.20
2022-09-23T15:05:31.810Z,71.90
2022-09-23T15:08:00.810Z,72.50
2022-09-23T15:10:28.739Z,73.20
2022-09-23T15:13:02.686Z,72.90
2022-09-23T15:15:29.460Z,74.20
2022-09-23T15:18:02.417Z,74.40
2022-09-23T15:20:29.250Z,75.00
2022-09-23T15:22:56.354Z,74.40
2022-09-23T15:25:33.700Z,74.50
2022-09-23T15:28:00.331Z,76.00
2022-09-23T15:30:27.162Z,74.90
2022-09-23T15:32:54.043Z,75.00
2022-09-23T15:35:22.381Z,76.20
2022-09-23T15:37:50.104Z,77.10
2022-09-23T15:40:30.478Z,77.10
2022-09-23T15:43:01.357Z,76.20
2022-09-23T15:45:30.187Z,76.70
2022-09-23T15:47:59.591Z,76.30
2022-09-23T15:50:27.159Z,76.60
2022-09-23T15:52:53.971Z,79.20
2022-09-23T15:55:23.746Z,81.10
2022-09-23T15:57:50.609Z,83.10
2022-09-23T16:00:17.571Z,81.90
2022-09-23T16:02:45.602Z,81.90
2022-09-23T16:05:18.725Z,82.40
2022-09-23T16:07:48.351Z,83.40
2022-09-23T16:10:15.521Z,83.80
2022-09-23T16:12:42.445Z,84.40
2022-09-23T16:15:13.820Z,86.40
2022-09-23T16:17:40.548Z,88.40
2022-09-23T16:20:07.355Z,89.60
2022-09-23T16:22:34.121Z,89.60
2022-09-23T16:25:00.861Z,90.20
2022-09-23T16:27:27.436Z,90.80
2022-09-23T16:29:54.273Z,91.10
2022-09-23T16:32:22.329Z,91.50
2022-09-23T16:34:48.989Z,92.00
2022-09-23T16:37:19.510Z,92.30
2022-09-23T16:39:48.046Z,92.90
2022-09-23T16:42:14.630Z,93.20
2022-09-23T16:44:41.548Z,93.60
2022-09-23T16:47:08.661Z,94.60
2022-09-23T16:49:35.301Z,95.20
2022-09-23T16:52:01.962Z,96.20
2022-09-23T16:54:28.571Z,97.10
2022-09-23T16:56:55.186Z,97.50
2022-09-23T16:59:21.821Z,98.10
2022-09-23T17:02:07.174Z,98.70
2022-09-23T17:04:33.846Z,99.40
2022-09-23T17:07:00.536Z,99.90
2022-09-23T17:09:28.522Z,99.90
2022-09-23T17:11:58.729Z,99.90
2022-09-23T17:14:25.384Z,99.90
2022-09-23T17:16:51.986Z,99.90
2022-09-23T17:19:18.599Z,99.90
2022-09-23T17:21:45.232Z,99.90
2022-09-23T17:24:11.891Z,99.90
2022-09-23T17:26:38.561Z,99.90
2022-09-23T17:29:05.624Z,99.90
2022-09-23T17:31:32.447Z,99.90
2022-09-23T17:33:59.131Z,99.90
2022-09-23T17:36:25.833Z,99.90
2022-09-23T17:38:53.563Z,99.90
2022-09-23T17:41:20.681Z,99.90
2022-09-23T17:43:53.694Z,99.90
2022-09-23T17:46:20.327Z,99.90
2022-09-23T17:48:47.085Z,99.90
2022-09-23T17:51:18.824Z,99.90
2022-09-23T17:53:46.536Z,99.90
2022-09-23T17:56:14.683Z,99.90
2022-09-23T17:58:41.356Z,99.90
2022-09-23T18:01:09.476Z,99.90
2022-09-23T18:03:36.255Z,99.90
2022-09-23T18:06:06.995Z,99.90
2022-09-23T18:08:33.761Z,99.90
2022-09-23T18:11:00.601Z,99.90
2022-09-23T18:13:27.281Z,99.90
2022-09-23T18:15:54.062Z,99.90
2022-09-23T18:18:20.723Z,99.90
2022-09-23T18:20:47.433Z,99.90
2022-09-23T18:23:14.117Z,99.90
2022-09-23T18:25:40.808Z,99.90
2022-09-23T18:28:07.590Z,99.90
2022-09-23T18:30:34.282Z,99.90
2022-09-23T18:33:01.664Z,99.90
2022-09-23T18:35:28.552Z,99.90
2022-09-23T18:37:56.072Z,99.90
2022-09-23T18:40:22.923Z,99.90
2022-09-23T18:42:50.429Z,99.90
2022-09-23T18:45:17.182Z,99.90
2022-09-23T18:48:02.692Z,99.90
2022-09-23T18:50:43.140Z,99.90
2022-09-23T18:53:10.380Z,99.90
2022-09-23T18:55:37.282Z,99.90
2022-09-23T18:58:04.465Z,99.90
2022-09-23T19:00:31.230Z,99.90
2022-09-23T19:02:57.931Z,99.90
2022-09-23T19:05:24.752Z,99.90
2022-09-23T19:07:51.459Z,99.90
2022-09-23T19:10:19.205Z,99.90
2022-09-23T19:12:46.703Z,99.90
2022-09-23T19:15:14.244Z,99.90
2022-09-23T19:17:40.929Z,99.90
2022-09-23T19:20:07.972Z,99.90
2022-09-23T19:22:34.950Z,99.90
2022-09-23T19:25:01.727Z,99.90
2022-09-23T19:27:28.722Z,99.90
2022-09-23T19:29:55.759Z,99.90
2022-09-23T19:32:24.508Z,99.90
2022-09-23T19:34:51.307Z,99.90
2022-09-23T19:37:18.119Z,99.90
2022-09-23T19:39:45.323Z,99.90
2022-09-23T19:42:12.792Z,99.90
2022-09-23T19:44:41.073Z,99.90
2022-09-23T19:47:08.201Z,99.90
2022-09-23T19:49:35.612Z,99.90
2022-09-23T19:52:02.440Z,99.90
2022-09-23T19:54:29.189Z,99.90
2022-09-23T19:56:55.941Z,99.90
2022-09-23T19:59:22.782Z,99.90
2022-09-23T20:01:49.696Z,99.90
2022-09-23T20:04:16.926Z,99.90
2022-09-23T20:06:46.915Z,99.90
2022-09-23T20:09:13.748Z,99.90
2022-09-23T20:11:43.024Z,99.90
2022-09-23T20:14:10.413Z,99.90
2022-09-23T20:16:37.490Z,99.90
2022-09-23T20:19:05.686Z,99.90
2022-09-23T20:21:33.840Z,99.90
2022-09-23T20:24:04.750Z,99.90
2022-09-23T20:26:50.242Z,99.90
2022-09-23T20:29:17.015Z,99.90
2022-09-23T20:31:44.691Z,99.90
2022-09-23T20:34:12.367Z,99.90
2022-09-23T20:36:42.101Z,99.90
2022-09-23T20:39:09.791Z,99.90
2022-09-23T20:41:39.920Z,99.90
2022-09-23T20:44:12.449Z,99.90
2022-09-23T20:46:45.274Z,99.90
2022-09-23T20:49:14.664Z,99.90
2022-09-23T20:51:41.360Z,99.90
2022-09-23T20:54:08.252Z,99.90
2022-09-23T20:56:34.994Z,99.90
2022-09-23T20:59:02.731Z,99.90
2022-09-23T21:01:32.151Z,99.90
2022-09-23T21:03:58.912Z,99.90
2022-09-23T21:06:26.177Z,99.90
2022-09-23T21:08:53.555Z,99.90
2022-09-23T21:11:23.079Z,99.90
2022-09-23T21:13:50.942Z,99.90
2022-09-23T21:16:19.110Z,99.90
2022-09-23T21:18:46.825Z,99.90
2022-09-23T21:21:14.377Z,99.90
2022-09-23T21:23:41.861Z,99.90
2022-09-23T21:26:09.539Z,99.90
2022-09-23T21:28:39.223Z,99.90
2022-09-23T21:31:10.743Z,99.90
2022-09-23T21:33:37.742Z,99.90
2022-09-23T21:36:05.703Z,99.90
2022-09-23T21:38:35.963Z,99.90
2022-09-23T21:41:04.002Z,99.90
2022-09-23T21:43:33.321Z,99.90
2022-09-23T21:46:04.797Z,99.90
2022-09-23T21:48:39.203Z,99.90
2022-09-23T21:51:08.286Z,99.90
2022-09-23T21:53:36.910Z,99.90
2022-09-23T21:56:09.880Z,99.90
2022-09-23T21:58:37.531Z,99.90
2022-09-23T22:01:08.715Z,99.90
2022-09-23T22:03:35.578Z,99.90
2022-09-23T22:06:09.562Z,99.90
2022-09-23T22:08:38.838Z,99.90
2022-09-23T22:11:31.682Z,99.90
2022-09-23T22:13:58.964Z,99.90
2022-09-23T22:16:26.242Z,99.90
2022-09-23T22:18:55.319Z,99.90
2022-09-23T22:21:23.130Z,99.90
2022-09-23T22:23:55.199Z,99.90
2022-09-23T22:26:21.964Z,99.90
2022-09-23T22:29:07.390Z,99.90
2022-09-23T22:31:53.112Z,99.90
2022-09-23T22:34:49.210Z,99.90
2022-09-23T22:37:20.835Z,99.90
2022-09-23T22:39:47.475Z,99.90
2022-09-23T22:42:14.442Z,99.90
2022-09-23T22:44:42.680Z,99.90
2022-09-23T22:47:09.886Z,99.90
2022-09-23T22:49:36.695Z,99.90
2022-09-23T22:52:05.685Z,99.90
2022-09-23T22:54:36.472Z,99.90
2022-09-23T22:57:07.121Z,99.90
2022-09-23T22:59:33.909Z,99.90
2022-09-23T23:02:02.326Z,99.90
2022-09-23T23:04:36.387Z,99.90
2022-09-23T23:07:03.111Z,99.90
2022-09-23T23:09:30.958Z,99.90
2022-09-23T23:12:01.632Z,99.90
2022-09-23T23:14:28.207Z,99.90
2022-09-23T23:16:55.100Z,99.90
2022-09-23T23:19:24.368Z,99.90
2022-09-23T23:21:53.746Z,99.90
2022-09-23T23:24:21.573Z,99.90
2022-09-23T23:26:48.309Z,99.90
2022-09-23T23:29:15.699Z,99.90
2022-09-23T23:31:42.651Z,99.90
2022-09-23T23:34:21.176Z,99.90
2022-09-23T23:36:55.630Z,99.90
2022-09-23T23:39:26.079Z,99.90
2022-09-23T23:41:56.270Z,99.90
2022-09-23T23:44:23.907Z,99.90
2022-09-23T23:46:51.141Z,99.90
2022-09-23T23:49:17.946Z,99.90
2022-09-23T23:51:44.863Z,99.90
2022-09-23T23:54:11.952Z,99.90
2022-09-23T23:56:38.678Z,99.90
2022-09-23T23:59:05.452Z,99.90
